sensor_id;sensor_type;location;lat;lon;timestamp;P1;durP1;ratioP1;P2;durP2;ratioP2
15603;SDS011;7902;49.042;9.092;2023-09-18T00:00:55;17.33;;;2.57;;
15603;SDS011;7902;49.042;9.092;2023-09-18T00:03:23;18.43;;;2.50;;
15603;SDS011;7902;49.042;9.092;2023-09-18T00:05:52;18.67;;;2.63;;
15603;SDS011;7902;49.042;9.092;2023-09-18T00:08:18;17.77;;;2.57;;
15603;SDS011;7902;49.042;9.092;2023-09-18T00:10:49;23.13;;;2.90;;
15603;SDS011;7902;49.042;9.092;2023-09-18T00:13:17;21.53;;;2.60;;
15603;SDS011;7902;49.042;9.092;2023-09-18T00:15:44;22.10;;;2.87;;
15603;SDS011;7902;49.042;9.092;2023-09-18T00:18:14;18.30;;;2.43;;
15603;SDS011;7902;49.042;9.092;2023-09-18T00:20:44;19.60;;;2.53;;
15603;SDS011;7902;49.042;9.092;2023-09-18T00:23:11;16.93;;;2.20;;
15603;SDS011;7902;49.042;9.092;2023-09-18T00:25:37;21.30;;;2.50;;
15603;SDS011;7902;49.042;9.092;2023-09-18T00:28:03;18.63;;;2.60;;
15603;SDS011;7902;49.042;9.092;2023-09-18T00:30:30;17.87;;;2.47;;
15603;SDS011;7902;49.042;9.092;2023-09-18T00:32:55;17.07;;;2.37;;
15603;SDS011;7902;49.042;9.092;2023-09-18T00:35:21;22.47;;;2.67;;
15603;SDS011;7902;49.042;9.092;2023-09-18T00:37:49;17.97;;;2.50;;
15603;SDS011;7902;49.042;9.092;2023-09-18T00:40:15;18.40;;;2.40;;
15603;SDS011;7902;49.042;9.092;2023-09-18T00:42:41;21.00;;;2.80;;
15603;SDS011;7902;49.042;9.092;2023-09-18T00:45:07;18.00;;;2.47;;
15603;SDS011;7902;49.042;9.092;2023-09-18T00:47:34;18.90;;;2.93;;
15603;SDS011;7902;49.042;9.092;2023-09-18T00:50:02;19.20;;;2.70;;
15603;SDS011;7902;49.042;9.092;2023-09-18T00:52:29;24.60;;;2.90;;
15603;SDS011;7902;49.042;9.092;2023-09-18T00:54:57;19.47;;;2.97;;
15603;SDS011;7902;49.042;9.092;2023-09-18T00:57:23;18.67;;;2.50;;
15603;SDS011;7902;49.042;9.092;2023-09-18T00:59:49;17.60;;;2.50;;
15603;SDS011;7902;49.042;9.092;2023-09-18T01:02:16;17.43;;;2.70;;
15603;SDS011;7902;49.042;9.092;2023-09-18T01:04:41;17.43;;;2.40;;
15603;SDS011;7902;49.042;9.092;2023-09-18T01:07:10;17.03;;;2.20;;
15603;SDS011;7902;49.042;9.092;2023-09-18T01:09:36;19.83;;;3.07;;
15603;SDS011;7902;49.042;9.092;2023-09-18T01:12:23;40.20;;;3.30;;
15603;SDS011;7902;49.042;9.092;2023-09-18T01:15:04;18.27;;;2.70;;
15603;SDS011;7902;49.042;9.092;2023-09-18T01:17:36;16.30;;;2.00;;
15603;SDS011;7902;49.042;9.092;2023-09-18T01:20:08;16.50;;;2.83;;
15603;SDS011;7902;49.042;9.092;2023-09-18T01:22:35;22.83;;;3.47;;
15603;SDS011;7902;49.042;9.092;2023-09-18T01:25:01;18.30;;;2.90;;
15603;SDS011;7902;49.042;9.092;2023-09-18T01:27:28;21.20;;;3.30;;
15603;SDS011;7902;49.042;9.092;2023-09-18T01:29:54;18.13;;;2.63;;
15603;SDS011;7902;49.042;9.092;2023-09-18T01:32:20;16.80;;;2.50;;
15603;SDS011;7902;49.042;9.092;2023-09-18T01:34:52;16.83;;;2.53;;
15603;SDS011;7902;49.042;9.092;2023-09-18T01:37:20;18.03;;;2.83;;
15603;SDS011;7902;49.042;9.092;2023-09-18T01:39:49;18.80;;;2.47;;
15603;SDS011;7902;49.042;9.092;2023-09-18T01:42:17;18.37;;;2.43;;
15603;SDS011;7902;49.042;9.092;2023-09-18T01:44:45;20.27;;;2.83;;
15603;SDS011;7902;49.042;9.092;2023-09-18T01:47:13;18.20;;;2.43;;
15603;SDS011;7902;49.042;9.092;2023-09-18T01:49:42;19.03;;;3.17;;
15603;SDS011;7902;49.042;9.092;2023-09-18T01:52:09;20.80;;;3.13;;
15603;SDS011;7902;49.042;9.092;2023-09-18T01:54:35;18.67;;;2.40;;
15603;SDS011;7902;49.042;9.092;2023-09-18T01:57:02;23.57;;;3.30;;
15603;SDS011;7902;49.042;9.092;2023-09-18T01:59:29;19.83;;;2.33;;
15603;SDS011;7902;49.042;9.092;2023-09-18T02:01:55;17.83;;;2.67;;
15603;SDS011;7902;49.042;9.092;2023-09-18T02:04:21;19.43;;;2.80;;
15603;SDS011;7902;49.042;9.092;2023-09-18T02:06:48;22.70;;;2.93;;
15603;SDS011;7902;49.042;9.092;2023-09-18T02:09:15;18.10;;;2.40;;
15603;SDS011;7902;49.042;9.092;2023-09-18T02:11:43;20.40;;;2.53;;
15603;SDS011;7902;49.042;9.092;2023-09-18T02:14:10;26.87;;;2.40;;
15603;SDS011;7902;49.042;9.092;2023-09-18T02:16:37;19.63;;;2.40;;
15603;SDS011;7902;49.042;9.092;2023-09-18T02:19:08;17.60;;;2.80;;
15603;SDS011;7902;49.042;9.092;2023-09-18T02:21:35;18.80;;;3.13;;
15603;SDS011;7902;49.042;9.092;2023-09-18T02:24:01;22.30;;;3.30;;
15603;SDS011;7902;49.042;9.092;2023-09-18T02:26:28;24.53;;;2.97;;
15603;SDS011;7902;49.042;9.092;2023-09-18T02:28:54;18.10;;;2.70;;
15603;SDS011;7902;49.042;9.092;2023-09-18T02:31:21;17.10;;;2.67;;
15603;SDS011;7902;49.042;9.092;2023-09-18T02:33:47;28.00;;;2.90;;
15603;SDS011;7902;49.042;9.092;2023-09-18T02:36:13;17.27;;;2.30;;
15603;SDS011;7902;49.042;9.092;2023-09-18T02:38:39;20.87;;;2.60;;
15603;SDS011;7902;49.042;9.092;2023-09-18T02:41:05;19.80;;;3.10;;
15603;SDS011;7902;49.042;9.092;2023-09-18T02:43:31;25.07;;;2.63;;
15603;SDS011;7902;49.042;9.092;2023-09-18T02:45:57;18.73;;;2.33;;
15603;SDS011;7902;49.042;9.092;2023-09-18T02:48:23;18.17;;;2.90;;
15603;SDS011;7902;49.042;9.092;2023-09-18T02:50:49;18.70;;;2.77;;
15603;SDS011;7902;49.042;9.092;2023-09-18T02:53:19;22.93;;;2.40;;
15603;SDS011;7902;49.042;9.092;2023-09-18T02:55:49;23.57;;;2.40;;
15603;SDS011;7902;49.042;9.092;2023-09-18T02:58:16;25.30;;;2.43;;
15603;SDS011;7902;49.042;9.092;2023-09-18T03:00:43;19.10;;;2.20;;
15603;SDS011;7902;49.042;9.092;2023-09-18T03:03:10;21.93;;;2.73;;
15603;SDS011;7902;49.042;9.092;2023-09-18T03:05:37;26.83;;;2.70;;
15603;SDS011;7902;49.042;9.092;2023-09-18T03:08:03;26.13;;;2.97;;
15603;SDS011;7902;49.042;9.092;2023-09-18T03:10:39;21.43;;;2.60;;
15603;SDS011;7902;49.042;9.092;2023-09-18T03:13:07;18.00;;;2.83;;
15603;SDS011;7902;49.042;9.092;2023-09-18T03:15:36;19.33;;;2.30;;
15603;SDS011;7902;49.042;9.092;2023-09-18T03:18:03;19.53;;;2.70;;
15603;SDS011;7902;49.042;9.092;2023-09-18T03:20:30;19.13;;;2.83;;
15603;SDS011;7902;49.042;9.092;2023-09-18T03:22:57;20.20;;;2.77;;
15603;SDS011;7902;49.042;9.092;2023-09-18T03:25:24;18.17;;;2.40;;
15603;SDS011;7902;49.042;9.092;2023-09-18T03:27:51;21.00;;;2.87;;
15603;SDS011;7902;49.042;9.092;2023-09-18T03:30:18;19.67;;;3.37;;
15603;SDS011;7902;49.042;9.092;2023-09-18T03:32:45;21.03;;;2.43;;
15603;SDS011;7902;49.042;9.092;2023-09-18T03:35:11;20.83;;;2.67;;
15603;SDS011;7902;49.042;9.092;2023-09-18T03:37:48;25.60;;;2.70;;
15603;SDS011;7902;49.042;9.092;2023-09-18T03:40:15;20.93;;;2.73;;
15603;SDS011;7902;49.042;9.092;2023-09-18T03:42:42;17.10;;;2.53;;
15603;SDS011;7902;49.042;9.092;2023-09-18T03:45:08;27.43;;;3.50;;
15603;SDS011;7902;49.042;9.092;2023-09-18T03:47:35;32.20;;;2.90;;
15603;SDS011;7902;49.042;9.092;2023-09-18T03:50:08;21.90;;;2.50;;
15603;SDS011;7902;49.042;9.092;2023-09-18T03:52:35;21.23;;;2.60;;
15603;SDS011;7902;49.042;9.092;2023-09-18T03:55:01;19.90;;;2.93;;
15603;SDS011;7902;49.042;9.092;2023-09-18T03:57:27;24.70;;;3.07;;
15603;SDS011;7902;49.042;9.092;2023-09-18T03:59:53;22.43;;;2.73;;
15603;SDS011;7902;49.042;9.092;2023-09-18T04:02:21;25.67;;;2.80;;
15603;SDS011;7902;49.042;9.092;2023-09-18T04:04:49;21.07;;;2.20;;
15603;SDS011;7902;49.042;9.092;2023-09-18T04:07:15;27.30;;;3.70;;
15603;SDS011;7902;49.042;9.092;2023-09-18T04:09:42;23.40;;;2.80;;
15603;SDS011;7902;49.042;9.092;2023-09-18T04:12:08;27.83;;;2.80;;
15603;SDS011;7902;49.042;9.092;2023-09-18T04:14:35;28.37;;;2.80;;
15603;SDS011;7902;49.042;9.092;2023-09-18T04:17:01;38.07;;;3.77;;
15603;SDS011;7902;49.042;9.092;2023-09-18T04:19:27;27.90;;;3.07;;
15603;SDS011;7902;49.042;9.092;2023-09-18T04:21:54;31.93;;;3.37;;
15603;SDS011;7902;49.042;9.092;2023-09-18T04:24:20;23.67;;;2.40;;
15603;SDS011;7902;49.042;9.092;2023-09-18T04:26:47;35.57;;;3.67;;
15603;SDS011;7902;49.042;9.092;2023-09-18T04:29:13;34.50;;;3.63;;
15603;SDS011;7902;49.042;9.092;2023-09-18T04:31:39;30.73;;;2.70;;
15603;SDS011;7902;49.042;9.092;2023-09-18T04:34:05;28.63;;;2.57;;
15603;SDS011;7902;49.042;9.092;2023-09-18T04:36:31;26.50;;;3.03;;
15603;SDS011;7902;49.042;9.092;2023-09-18T04:38:57;28.33;;;2.10;;
15603;SDS011;7902;49.042;9.092;2023-09-18T04:41:23;20.43;;;2.50;;
15603;SDS011;7902;49.042;9.092;2023-09-18T04:43:49;20.73;;;2.40;;
15603;SDS011;7902;49.042;9.092;2023-09-18T04:46:16;25.70;;;2.77;;
15603;SDS011;7902;49.042;9.092;2023-09-18T04:48:42;24.07;;;3.00;;
15603;SDS011;7902;49.042;9.092;2023-09-18T04:51:08;21.13;;;2.37;;
15603;SDS011;7902;49.042;9.092;2023-09-18T04:53:34;25.43;;;2.60;;
15603;SDS011;7902;49.042;9.092;2023-09-18T04:55:59;20.13;;;1.80;;
15603;SDS011;7902;49.042;9.092;2023-09-18T04:58:26;22.60;;;2.47;;
15603;SDS011;7902;49.042;9.092;2023-09-18T05:00:59;23.40;;;2.07;;
15603;SDS011;7902;49.042;9.092;2023-09-18T05:03:26;30.93;;;2.40;;
15603;SDS011;7902;49.042;9.092;2023-09-18T05:05:52;27.10;;;2.37;;
15603;SDS011;7902;49.042;9.092;2023-09-18T05:08:18;19.10;;;2.23;;
15603;SDS011;7902;49.042;9.092;2023-09-18T05:10:45;21.13;;;2.20;;
15603;SDS011;7902;49.042;9.092;2023-09-18T05:13:11;28.80;;;2.80;;
15603;SDS011;7902;49.042;9.092;2023-09-18T05:15:37;26.37;;;2.17;;
15603;SDS011;7902;49.042;9.092;2023-09-18T05:18:04;24.43;;;2.97;;
15603;SDS011;7902;49.042;9.092;2023-09-18T05:20:30;23.63;;;2.03;;
15603;SDS011;7902;49.042;9.092;2023-09-18T05:22:57;23.83;;;3.33;;
15603;SDS011;7902;49.042;9.092;2023-09-18T05:25:25;20.27;;;2.30;;
15603;SDS011;7902;49.042;9.092;2023-09-18T05:27:53;24.60;;;3.70;;
15603;SDS011;7902;49.042;9.092;2023-09-18T05:30:25;22.10;;;2.67;;
15603;SDS011;7902;49.042;9.092;2023-09-18T05:32:56;24.93;;;2.80;;
15603;SDS011;7902;49.042;9.092;2023-09-18T05:35:23;25.43;;;2.90;;
15603;SDS011;7902;49.042;9.092;2023-09-18T05:37:49;28.50;;;3.27;;
15603;SDS011;7902;49.042;9.092;2023-09-18T05:40:16;23.20;;;3.23;;
15603;SDS011;7902;49.042;9.092;2023-09-18T05:42:43;31.27;;;3.67;;
15603;SDS011;7902;49.042;9.092;2023-09-18T05:45:10;27.10;;;2.93;;
15603;SDS011;7902;49.042;9.092;2023-09-18T05:47:37;21.37;;;2.87;;
15603;SDS011;7902;49.042;9.092;2023-09-18T05:50:10;28.30;;;3.50;;
15603;SDS011;7902;49.042;9.092;2023-09-18T05:52:43;23.00;;;3.03;;
15603;SDS011;7902;49.042;9.092;2023-09-18T05:55:10;30.10;;;3.03;;
15603;SDS011;7902;49.042;9.092;2023-09-18T05:57:36;24.70;;;2.73;;
15603;SDS011;7902;49.042;9.092;2023-09-18T06:00:02;22.90;;;3.40;;
15603;SDS011;7902;49.042;9.092;2023-09-18T06:02:28;24.63;;;3.43;;
15603;SDS011;7902;49.042;9.092;2023-09-18T06:04:58;21.40;;;3.30;;
15603;SDS011;7902;49.042;9.092;2023-09-18T06:07:26;21.27;;;3.23;;
15603;SDS011;7902;49.042;9.092;2023-09-18T06:09:52;25.17;;;3.90;;
15603;SDS011;7902;49.042;9.092;2023-09-18T06:12:19;28.93;;;4.53;;
15603;SDS011;7902;49.042;9.092;2023-09-18T06:14:45;25.50;;;3.47;;
15603;SDS011;7902;49.042;9.092;2023-09-18T06:17:13;31.10;;;3.93;;
15603;SDS011;7902;49.042;9.092;2023-09-18T06:19:40;24.33;;;3.70;;
15603;SDS011;7902;49.042;9.092;2023-09-18T06:22:07;26.03;;;3.70;;
15603;SDS011;7902;49.042;9.092;2023-09-18T06:24:35;29.70;;;3.90;;
15603;SDS011;7902;49.042;9.092;2023-09-18T06:27:02;25.20;;;4.80;;
15603;SDS011;7902;49.042;9.092;2023-09-18T06:29:32;25.53;;;4.00;;
15603;SDS011;7902;49.042;9.092;2023-09-18T06:31:58;26.80;;;3.50;;
15603;SDS011;7902;49.042;9.092;2023-09-18T06:34:24;19.00;;;2.93;;
15603;SDS011;7902;49.042;9.092;2023-09-18T06:36:50;28.57;;;3.90;;
15603;SDS011;7902;49.042;9.092;2023-09-18T06:39:16;25.53;;;2.70;;
15603;SDS011;7902;49.042;9.092;2023-09-18T06:41:42;22.40;;;2.87;;
15603;SDS011;7902;49.042;9.092;2023-09-18T06:44:08;28.03;;;2.63;;
15603;SDS011;7902;49.042;9.092;2023-09-18T06:46:34;29.00;;;2.80;;
15603;SDS011;7902;49.042;9.092;2023-09-18T06:49:00;21.80;;;3.00;;
15603;SDS011;7902;49.042;9.092;2023-09-18T06:51:26;33.00;;;2.70;;
15603;SDS011;7902;49.042;9.092;2023-09-18T06:53:55;27.30;;;3.00;;
15603;SDS011;7902;49.042;9.092;2023-09-18T06:56:25;24.77;;;3.60;;
15603;SDS011;7902;49.042;9.092;2023-09-18T06:58:51;26.30;;;3.87;;
15603;SDS011;7902;49.042;9.092;2023-09-18T07:01:18;22.53;;;3.70;;
15603;SDS011;7902;49.042;9.092;2023-09-18T07:03:45;24.80;;;3.47;;
15603;SDS011;7902;49.042;9.092;2023-09-18T07:06:13;30.07;;;3.93;;
15603;SDS011;7902;49.042;9.092;2023-09-18T07:08:42;23.63;;;4.23;;
15603;SDS011;7902;49.042;9.092;2023-09-18T07:11:08;29.00;;;4.40;;
15603;SDS011;7902;49.042;9.092;2023-09-18T07:13:34;29.77;;;4.03;;
15603;SDS011;7902;49.042;9.092;2023-09-18T07:16:00;25.50;;;2.97;;
15603;SDS011;7902;49.042;9.092;2023-09-18T07:18:26;27.03;;;3.00;;
15603;SDS011;7902;49.042;9.092;2023-09-18T07:20:52;28.83;;;3.57;;
15603;SDS011;7902;49.042;9.092;2023-09-18T07:23:18;24.67;;;3.10;;
15603;SDS011;7902;49.042;9.092;2023-09-18T07:25:44;33.03;;;4.30;;
15603;SDS011;7902;49.042;9.092;2023-09-18T07:28:10;24.70;;;3.40;;
15603;SDS011;7902;49.042;9.092;2023-09-18T07:30:41;25.10;;;3.40;;
15603;SDS011;7902;49.042;9.092;2023-09-18T07:33:07;34.20;;;3.47;;
15603;SDS011;7902;49.042;9.092;2023-09-18T07:35:33;38.30;;;3.70;;
15603;SDS011;7902;49.042;9.092;2023-09-18T07:37:59;22.37;;;3.13;;
15603;SDS011;7902;49.042;9.092;2023-09-18T07:40:25;22.30;;;3.27;;
15603;SDS011;7902;49.042;9.092;2023-09-18T07:42:51;23.53;;;3.27;;
15603;SDS011;7902;49.042;9.092;2023-09-18T07:45:16;23.07;;;2.43;;
15603;SDS011;7902;49.042;9.092;2023-09-18T07:47:43;23.17;;;2.70;;
15603;SDS011;7902;49.042;9.092;2023-09-18T07:50:09;34.73;;;4.10;;
15603;SDS011;7902;49.042;9.092;2023-09-18T07:52:35;28.73;;;3.10;;
15603;SDS011;7902;49.042;9.092;2023-09-18T07:55:02;25.43;;;3.87;;
15603;SDS011;7902;49.042;9.092;2023-09-18T07:57:28;26.93;;;3.00;;
15603;SDS011;7902;49.042;9.092;2023-09-18T07:59:55;26.00;;;3.27;;
15603;SDS011;7902;49.042;9.092;2023-09-18T08:02:22;23.90;;;3.00;;
15603;SDS011;7902;49.042;9.092;2023-09-18T08:04:48;25.93;;;2.90;;
15603;SDS011;7902;49.042;9.092;2023-09-18T08:07:15;21.40;;;2.53;;
15603;SDS011;7902;49.042;9.092;2023-09-18T08:09:41;24.53;;;2.80;;
15603;SDS011;7902;49.042;9.092;2023-09-18T08:12:08;20.13;;;2.40;;
15603;SDS011;7902;49.042;9.092;2023-09-18T08:14:34;23.20;;;2.80;;
15603;SDS011;7902;49.042;9.092;2023-09-18T08:17:03;20.20;;;2.80;;
15603;SDS011;7902;49.042;9.092;2023-09-18T08:19:30;24.33;;;2.80;;
15603;SDS011;7902;49.042;9.092;2023-09-18T08:22:01;22.40;;;2.30;;
15603;SDS011;7902;49.042;9.092;2023-09-18T08:24:27;22.13;;;2.30;;
15603;SDS011;7902;49.042;9.092;2023-09-18T08:26:53;20.10;;;2.00;;
15603;SDS011;7902;49.042;9.092;2023-09-18T08:29:19;25.13;;;2.30;;
15603;SDS011;7902;49.042;9.092;2023-09-18T08:31:46;21.58;;;2.45;;
15603;SDS011;7902;49.042;9.092;2023-09-18T08:34:11;20.90;;;2.72;;
15603;SDS011;7902;49.042;9.092;2023-09-18T08:36:37;19.50;;;2.17;;
15603;SDS011;7902;49.042;9.092;2023-09-18T08:39:03;22.15;;;1.90;;
15603;SDS011;7902;49.042;9.092;2023-09-18T08:41:32;19.00;;;1.70;;
15603;SDS011;7902;49.042;9.092;2023-09-18T08:44:03;18.42;;;1.58;;
15603;SDS011;7902;49.042;9.092;2023-09-18T08:46:29;17.57;;;1.57;;
15603;SDS011;7902;49.042;9.092;2023-09-18T08:48:57;15.25;;;1.05;;
15603;SDS011;7902;49.042;9.092;2023-09-18T08:51:24;22.80;;;1.63;;
15603;SDS011;7902;49.042;9.092;2023-09-18T08:53:50;21.20;;;1.70;;
15603;SDS011;7902;49.042;9.092;2023-09-18T08:56:17;17.63;;;1.27;;
15603;SDS011;7902;49.042;9.092;2023-09-18T08:58:43;16.63;;;1.50;;
15603;SDS011;7902;49.042;9.092;2023-09-18T09:01:10;20.93;;;2.20;;
15603;SDS011;7902;49.042;9.092;2023-09-18T09:03:40;16.57;;;1.50;;
15603;SDS011;7902;49.042;9.092;2023-09-18T09:06:06;25.47;;;2.33;;
15603;SDS011;7902;49.042;9.092;2023-09-18T09:08:33;22.45;;;2.20;;
15603;SDS011;7902;49.042;9.092;2023-09-18T09:10:59;24.30;;;2.23;;
15603;SDS011;7902;49.042;9.092;2023-09-18T09:13:25;19.67;;;2.20;;
15603;SDS011;7902;49.042;9.092;2023-09-18T09:15:52;25.20;;;2.60;;
15603;SDS011;7902;49.042;9.092;2023-09-18T09:18:21;23.87;;;2.37;;
15603;SDS011;7902;49.042;9.092;2023-09-18T09:21:01;24.50;;;3.10;;
15603;SDS011;7902;49.042;9.092;2023-09-18T09:23:44;24.23;;;2.80;;
15603;SDS011;7902;49.042;9.092;2023-09-18T09:26:18;18.17;;;2.30;;
15603;SDS011;7902;49.042;9.092;2023-09-18T09:28:45;27.03;;;2.30;;
15603;SDS011;7902;49.042;9.092;2023-09-18T09:31:26;28.17;;;2.57;;
15603;SDS011;7902;49.042;9.092;2023-09-18T09:33:53;23.47;;;2.20;;
15603;SDS011;7902;49.042;9.092;2023-09-18T09:36:20;21.03;;;1.70;;
15603;SDS011;7902;49.042;9.092;2023-09-18T09:38:47;23.63;;;2.30;;
15603;SDS011;7902;49.042;9.092;2023-09-18T09:41:13;20.70;;;2.07;;
15603;SDS011;7902;49.042;9.092;2023-09-18T09:43:41;18.40;;;1.30;;
15603;SDS011;7902;49.042;9.092;2023-09-18T09:46:08;20.10;;;1.93;;
15603;SDS011;7902;49.042;9.092;2023-09-18T09:49:01;23.53;;;1.67;;
15603;SDS011;7902;49.042;9.092;2023-09-18T09:51:29;19.23;;;1.90;;
15603;SDS011;7902;49.042;9.092;2023-09-18T09:53:55;18.27;;;1.40;;
15603;SDS011;7902;49.042;9.092;2023-09-18T09:56:39;22.53;;;1.40;;
15603;SDS011;7902;49.042;9.092;2023-09-18T09:59:16;17.77;;;1.50;;
15603;SDS011;7902;49.042;9.092;2023-09-18T10:01:47;20.03;;;1.30;;
15603;SDS011;7902;49.042;9.092;2023-09-18T10:04:16;21.00;;;1.60;;
15603;SDS011;7902;49.042;9.092;2023-09-18T10:06:44;16.47;;;1.40;;
15603;SDS011;7902;49.042;9.092;2023-09-18T10:09:17;17.47;;;1.60;;
15603;SDS011;7902;49.042;9.092;2023-09-18T10:11:45;16.90;;;1.40;;
15603;SDS011;7902;49.042;9.092;2023-09-18T10:14:18;16.33;;;1.43;;
15603;SDS011;7902;49.042;9.092;2023-09-18T10:16:51;22.67;;;1.57;;
15603;SDS011;7902;49.042;9.092;2023-09-18T10:19:21;18.87;;;1.53;;
15603;SDS011;7902;49.042;9.092;2023-09-18T10:24:30;22.63;;;1.37;;
15603;SDS011;7902;49.042;9.092;2023-09-18T10:27:02;23.73;;;1.47;;
15603;SDS011;7902;49.042;9.092;2023-09-18T10:29:30;18.73;;;1.67;;
15603;SDS011;7902;49.042;9.092;2023-09-18T10:31:58;15.17;;;1.27;;
15603;SDS011;7902;49.042;9.092;2023-09-18T10:34:24;15.83;;;1.70;;
15603;SDS011;7902;49.042;9.092;2023-09-18T10:36:51;18.63;;;1.37;;
15603;SDS011;7902;49.042;9.092;2023-09-18T10:39:18;20.23;;;1.53;;
15603;SDS011;7902;49.042;9.092;2023-09-18T10:41:52;18.90;;;1.60;;
15603;SDS011;7902;49.042;9.092;2023-09-18T10:44:19;16.20;;;1.47;;
15603;SDS011;7902;49.042;9.092;2023-09-18T10:46:45;16.63;;;1.57;;
15603;SDS011;7902;49.042;9.092;2023-09-18T10:49:13;17.80;;;1.47;;
15603;SDS011;7902;49.042;9.092;2023-09-18T10:51:40;17.20;;;1.30;;
15603;SDS011;7902;49.042;9.092;2023-09-18T10:54:08;15.37;;;1.20;;
15603;SDS011;7902;49.042;9.092;2023-09-18T10:56:35;16.13;;;1.60;;
15603;SDS011;7902;49.042;9.092;2023-09-18T10:59:02;30.50;;;2.10;;
15603;SDS011;7902;49.042;9.092;2023-09-18T11:01:31;19.47;;;1.70;;
15603;SDS011;7902;49.042;9.092;2023-09-18T11:03:57;20.13;;;1.50;;
15603;SDS011;7902;49.042;9.092;2023-09-18T11:06:27;19.73;;;1.53;;
15603;SDS011;7902;49.042;9.092;2023-09-18T11:09:00;19.00;;;1.77;;
15603;SDS011;7902;49.042;9.092;2023-09-18T11:11:29;19.83;;;1.80;;
15603;SDS011;7902;49.042;9.092;2023-09-18T11:13:58;18.50;;;2.20;;
15603;SDS011;7902;49.042;9.092;2023-09-18T11:19:05;22.27;;;1.80;;
15603;SDS011;7902;49.042;9.092;2023-09-18T11:21:34;18.93;;;1.90;;
15603;SDS011;7902;49.042;9.092;2023-09-18T11:24:01;20.20;;;2.00;;
15603;SDS011;7902;49.042;9.092;2023-09-18T11:26:29;17.60;;;1.50;;
15603;SDS011;7902;49.042;9.092;2023-09-18T11:29:01;16.40;;;1.57;;
15603;SDS011;7902;49.042;9.092;2023-09-18T11:31:47;15.70;;;1.50;;
15603;SDS011;7902;49.042;9.092;2023-09-18T11:34:29;18.90;;;2.03;;
15603;SDS011;7902;49.042;9.092;2023-09-18T11:37:02;16.17;;;1.60;;
15603;SDS011;7902;49.042;9.092;2023-09-18T11:39:45;17.30;;;1.60;;
15603;SDS011;7902;49.042;9.092;2023-09-18T11:44:39;23.17;;;1.80;;
15603;SDS011;7902;49.042;9.092;2023-09-18T11:47:12;16.17;;;1.30;;
15603;SDS011;7902;49.042;9.092;2023-09-18T11:49:46;18.50;;;1.73;;
15603;SDS011;7902;49.042;9.092;2023-09-18T11:52:22;16.90;;;1.40;;
15603;SDS011;7902;49.042;9.092;2023-09-18T11:54:55;22.53;;;2.57;;
15603;SDS011;7902;49.042;9.092;2023-09-18T11:57:22;20.90;;;1.63;;
15603;SDS011;7902;49.042;9.092;2023-09-18T11:59:48;15.43;;;1.20;;
15603;SDS011;7902;49.042;9.092;2023-09-18T12:02:25;20.67;;;1.40;;
15603;SDS011;7902;49.042;9.092;2023-09-18T12:04:54;17.93;;;1.50;;
15603;SDS011;7902;49.042;9.092;2023-09-18T12:07:20;15.23;;;1.33;;
15603;SDS011;7902;49.042;9.092;2023-09-18T12:09:46;20.70;;;1.50;;
15603;SDS011;7902;49.042;9.092;2023-09-18T12:12:12;35.83;;;1.97;;
15603;SDS011;7902;49.042;9.092;2023-09-18T12:14:40;17.43;;;1.50;;
15603;SDS011;7902;49.042;9.092;2023-09-18T12:17:07;17.53;;;1.33;;
15603;SDS011;7902;49.042;9.092;2023-09-18T12:19:34;20.30;;;1.50;;
15603;SDS011;7902;49.042;9.092;2023-09-18T12:22:01;16.60;;;1.67;;
15603;SDS011;7902;49.042;9.092;2023-09-18T12:24:27;24.50;;;1.63;;
15603;SDS011;7902;49.042;9.092;2023-09-18T12:26:54;17.90;;;1.80;;
15603;SDS011;7902;49.042;9.092;2023-09-18T12:29:20;17.37;;;1.67;;
15603;SDS011;7902;49.042;9.092;2023-09-18T12:31:47;21.60;;;1.40;;
15603;SDS011;7902;49.042;9.092;2023-09-18T12:34:19;19.73;;;1.53;;
15603;SDS011;7902;49.042;9.092;2023-09-18T12:36:49;17.93;;;1.57;;
15603;SDS011;7902;49.042;9.092;2023-09-18T12:39:17;18.43;;;1.93;;
15603;SDS011;7902;49.042;9.092;2023-09-18T12:41:46;23.43;;;2.27;;
15603;SDS011;7902;49.042;9.092;2023-09-18T12:44:13;16.87;;;1.30;;
15603;SDS011;7902;49.042;9.092;2023-09-18T12:46:41;21.90;;;1.97;;
15603;SDS011;7902;49.042;9.092;2023-09-18T12:49:18;22.30;;;1.17;;
15603;SDS011;7902;49.042;9.092;2023-09-18T12:51:53;20.67;;;1.20;;
15603;SDS011;7902;49.042;9.092;2023-09-18T12:54:37;23.80;;;2.07;;
15603;SDS011;7902;49.042;9.092;2023-09-18T12:57:08;20.13;;;1.67;;
15603;SDS011;7902;49.042;9.092;2023-09-18T12:59:35;15.37;;;1.20;;
15603;SDS011;7902;49.042;9.092;2023-09-18T13:02:03;17.02;;;1.30;;
15603;SDS011;7902;49.042;9.092;2023-09-18T13:04:33;17.53;;;1.53;;
15603;SDS011;7902;49.042;9.092;2023-09-18T13:07:04;26.38;;;1.90;;
15603;SDS011;7902;49.042;9.092;2023-09-18T13:09:31;20.35;;;1.42;;
15603;SDS011;7902;49.042;9.092;2023-09-18T13:11:57;16.40;;;1.58;;
15603;SDS011;7902;49.042;9.092;2023-09-18T13:14:24;18.00;;;1.42;;
15603;SDS011;7902;49.042;9.092;2023-09-18T13:16:50;16.73;;;1.38;;
15603;SDS011;7902;49.042;9.092;2023-09-18T13:19:17;17.02;;;1.30;;
15603;SDS011;7902;49.042;9.092;2023-09-18T13:21:47;16.58;;;1.42;;
15603;SDS011;7902;49.042;9.092;2023-09-18T13:27:10;15.43;;;1.13;;
15603;SDS011;7902;49.042;9.092;2023-09-18T13:29:36;18.95;;;1.60;;
15603;SDS011;7902;49.042;9.092;2023-09-18T13:32:03;18.75;;;2.05;;
15603;SDS011;7902;49.042;9.092;2023-09-18T13:34:29;23.77;;;1.67;;
15603;SDS011;7902;49.042;9.092;2023-09-18T13:36:56;19.48;;;1.20;;
15603;SDS011;7902;49.042;9.092;2023-09-18T13:39:22;18.63;;;1.40;;
15603;SDS011;7902;49.042;9.092;2023-09-18T13:41:48;20.15;;;1.58;;
15603;SDS011;7902;49.042;9.092;2023-09-18T13:44:14;16.80;;;1.52;;
15603;SDS011;7902;49.042;9.092;2023-09-18T13:46:40;19.30;;;1.65;;
15603;SDS011;7902;49.042;9.092;2023-09-18T13:49:06;17.92;;;1.35;;
15603;SDS011;7902;49.042;9.092;2023-09-18T13:51:32;20.23;;;1.35;;
15603;SDS011;7902;49.042;9.092;2023-09-18T13:53:58;17.15;;;1.30;;
15603;SDS011;7902;49.042;9.092;2023-09-18T13:56:25;17.65;;;1.20;;
15603;SDS011;7902;49.042;9.092;2023-09-18T13:58:54;16.90;;;1.45;;
15603;SDS011;7902;49.042;9.092;2023-09-18T14:01:22;18.45;;;1.92;;
15603;SDS011;7902;49.042;9.092;2023-09-18T14:03:52;17.98;;;1.45;;
15603;SDS011;7902;49.042;9.092;2023-09-18T14:06:19;18.40;;;1.48;;
15603;SDS011;7902;49.042;9.092;2023-09-18T14:08:44;17.42;;;1.58;;
15603;SDS011;7902;49.042;9.092;2023-09-18T14:11:10;19.00;;;1.58;;
15603;SDS011;7902;49.042;9.092;2023-09-18T14:13:36;18.77;;;1.83;;
15603;SDS011;7902;49.042;9.092;2023-09-18T14:16:02;18.35;;;1.50;;
15603;SDS011;7902;49.042;9.092;2023-09-18T14:18:29;23.67;;;1.85;;
15603;SDS011;7902;49.042;9.092;2023-09-18T14:20:55;19.50;;;1.48;;
15603;SDS011;7902;49.042;9.092;2023-09-18T14:23:21;17.75;;;1.20;;
15603;SDS011;7902;49.042;9.092;2023-09-18T14:25:47;18.63;;;1.27;;
15603;SDS011;7902;49.042;9.092;2023-09-18T14:28:13;20.25;;;1.38;;
15603;SDS011;7902;49.042;9.092;2023-09-18T14:30:39;23.00;;;1.52;;
15603;SDS011;7902;49.042;9.092;2023-09-18T14:33:05;17.77;;;1.30;;
15603;SDS011;7902;49.042;9.092;2023-09-18T14:35:33;20.65;;;1.67;;
15603;SDS011;7902;49.042;9.092;2023-09-18T14:38:00;17.52;;;1.25;;
15603;SDS011;7902;49.042;9.092;2023-09-18T14:40:29;18.65;;;1.48;;
15603;SDS011;7902;49.042;9.092;2023-09-18T14:42:55;19.30;;;1.40;;
15603;SDS011;7902;49.042;9.092;2023-09-18T14:45:21;18.88;;;1.40;;
15603;SDS011;7902;49.042;9.092;2023-09-18T14:47:47;18.95;;;1.33;;
15603;SDS011;7902;49.042;9.092;2023-09-18T14:50:13;18.52;;;1.30;;
15603;SDS011;7902;49.042;9.092;2023-09-18T14:52:39;18.65;;;1.63;;
15603;SDS011;7902;49.042;9.092;2023-09-18T14:55:05;15.60;;;1.10;;
15603;SDS011;7902;49.042;9.092;2023-09-18T14:57:31;18.23;;;1.58;;
15603;SDS011;7902;49.042;9.092;2023-09-18T14:59:57;19.85;;;1.33;;
15603;SDS011;7902;49.042;9.092;2023-09-18T15:02:23;24.52;;;1.25;;